createdAt,value
2023-01-22T00:04:30.522Z,57.80
2023-01-22T00:07:32.452Z,81.40
2023-01-22T00:10:34.142Z,63.00
2023-01-22T00:13:35.867Z,58.90
2023-01-22T00:19:39.192Z,58.10
2023-01-22T00:22:40.870Z,60.00
2023-01-22T00:25:42.705Z,49.30
2023-01-22T00:31:46.027Z,43.50
2023-01-22T00:37:49.200Z,45.10
2023-01-22T00:40:50.824Z,53.00
2023-01-22T00:43:53.033Z,48.10
2023-01-22T00:46:54.909Z,43.30
2023-01-22T00:49:56.542Z,48.70
2023-01-22T00:52:58.129Z,49.70
2023-01-22T00:56:01.725Z,43.20
2023-01-22T00:59:03.414Z,44.30
2023-01-22T01:02:05.189Z,41.80
2023-01-22T01:05:07.448Z,47.50
2023-01-22T01:08:09.167Z,49.50
2023-01-22T01:11:19.835Z,52.50
2023-01-22T01:14:21.583Z,52.60
2023-01-22T01:20:24.978Z,43.60
2023-01-22T01:26:28.982Z,42.40
2023-01-22T01:29:30.685Z,44.20
2023-01-22T01:32:32.431Z,41.90
2023-01-22T01:38:36.322Z,42.20
2023-01-22T01:41:37.949Z,41.20
2023-01-22T01:44:40.426Z,39.80
2023-01-22T01:47:42.144Z,45.40
2023-01-22T01:50:47.591Z,46.80
2023-01-22T01:53:50.458Z,44.80
2023-01-22T01:56:57.335Z,44.50
2023-01-22T01:59:59.919Z,43.70
2023-01-22T02:03:01.716Z,40.30
2023-01-22T02:09:05.364Z,38.40
2023-01-22T02:12:07.294Z,39.30
2023-01-22T02:15:09.924Z,38.70
2023-01-22T02:18:11.533Z,41.30
2023-01-22T02:21:34.880Z,41.00
2023-01-22T02:24:36.688Z,35.50
2023-01-22T02:30:39.883Z,30.50
2023-01-22T02:33:41.424Z,31.30
2023-01-22T02:36:43.017Z,30.30
2023-01-22T02:39:44.873Z,29.60
2023-01-22T02:45:48.182Z,29.40
2023-01-22T02:48:49.858Z,28.90
2023-01-22T02:51:51.602Z,28.60
2023-01-22T02:57:54.840Z,26.90
2023-01-22T03:04:04.104Z,27.50
2023-01-22T03:07:05.725Z,27.70
2023-01-22T03:10:10.162Z,26.60
2023-01-22T03:13:11.874Z,28.40
2023-01-22T03:19:15.054Z,28.50
2023-01-22T03:22:18.118Z,28.30
2023-01-22T03:25:19.781Z,28.10
2023-01-22T03:28:21.365Z,28.20
2023-01-22T03:31:22.976Z,29.10
2023-01-22T03:34:26.480Z,30.00
2023-01-22T03:37:28.247Z,27.40
2023-01-22T03:43:32.512Z,27.40
2023-01-22T03:46:34.216Z,27.30
2023-01-22T03:49:35.826Z,28.30
2023-01-22T03:55:39.361Z,27.60
2023-01-22T03:58:41.379Z,27.60
2023-01-22T04:04:44.706Z,26.70
2023-01-22T04:10:48.162Z,26.30
2023-01-22T04:13:50.234Z,26.70
2023-01-22T04:16:51.838Z,26.60
2023-01-22T04:19:53.474Z,27.40
2023-01-22T04:22:55.200Z,27.00
2023-01-22T04:25:56.784Z,28.30
2023-01-22T04:28:58.377Z,27.20
2023-01-22T04:31:59.918Z,52.50
2023-01-22T04:35:01.649Z,25.70
2023-01-22T04:38:05.091Z,25.70
2023-01-22T04:41:06.625Z,25.00
2023-01-22T04:47:10.021Z,22.40
2023-01-22T04:50:19.775Z,22.40
2023-01-22T04:53:21.660Z,21.50
2023-01-22T04:56:23.265Z,21.90
2023-01-22T04:59:24.873Z,21.80
2023-01-22T05:02:26.806Z,22.40
2023-01-22T05:05:30.236Z,24.00
2023-01-22T05:08:31.962Z,23.40
2023-01-22T05:14:35.207Z,22.60
2023-01-22T05:17:36.868Z,24.20
2023-01-22T05:20:38.736Z,24.10
2023-01-22T05:26:41.987Z,22.00
2023-01-22T05:29:43.618Z,20.50
2023-01-22T05:32:45.111Z,20.30
2023-01-22T05:35:58.330Z,23.40
2023-01-22T05:38:59.981Z,21.70
2023-01-22T05:42:01.668Z,22.00
2023-01-22T05:45:03.616Z,21.90
2023-01-22T05:48:05.543Z,22.90
2023-01-22T05:51:08.149Z,25.00
2023-01-22T05:54:09.805Z,23.40
2023-01-22T05:57:11.466Z,24.50
2023-01-22T06:00:13.760Z,22.50
2023-01-22T06:03:15.341Z,23.60
2023-01-22T06:06:16.884Z,23.30
2023-01-22T06:09:18.556Z,23.30
2023-01-22T06:12:20.107Z,21.00
2023-01-22T06:15:21.774Z,20.80
2023-01-22T06:18:24.378Z,25.20
2023-01-22T06:21:29.099Z,20.10
2023-01-22T06:24:30.661Z,21.00
2023-01-22T06:27:32.277Z,20.10
2023-01-22T06:30:34.031Z,18.90
2023-01-22T06:36:37.838Z,18.80
2023-01-22T06:42:41.511Z,18.30
2023-01-22T06:45:43.132Z,19.00
2023-01-22T06:48:44.856Z,19.40
2023-01-22T06:51:46.556Z,18.80
2023-01-22T06:54:48.095Z,18.70
2023-01-22T06:57:49.670Z,19.90
2023-01-22T07:00:51.301Z,19.00
2023-01-22T07:03:53.171Z,26.10
2023-01-22T07:06:54.801Z,24.80
2023-01-22T07:09:56.428Z,24.60
2023-01-22T07:12:58.416Z,22.80
2023-01-22T07:16:04.463Z,19.80
2023-01-22T07:19:06.129Z,21.60
2023-01-22T07:22:07.737Z,22.60
2023-01-22T07:25:09.523Z,23.40
2023-01-22T07:28:13.573Z,25.70
2023-01-22T07:31:15.231Z,19.40
2023-01-22T07:37:18.469Z,20.20
2023-01-22T07:40:20.673Z,18.30
2023-01-22T07:43:22.338Z,20.10
2023-01-22T07:46:24.119Z,22.40
2023-01-22T07:52:27.474Z,19.80
2023-01-22T07:58:30.793Z,19.90
2023-01-22T08:01:32.382Z,19.80
2023-01-22T08:04:33.999Z,20.70
2023-01-22T08:07:35.671Z,22.50
2023-01-22T08:10:38.289Z,20.70
2023-01-22T08:13:40.051Z,20.80
2023-01-22T08:19:43.185Z,21.80
2023-01-22T08:22:44.807Z,21.10
2023-01-22T08:25:46.651Z,22.60
2023-01-22T08:28:48.549Z,19.90
2023-01-22T08:34:52.521Z,23.80
2023-01-22T08:40:55.934Z,20.50
2023-01-22T08:43:57.677Z,20.70
2023-01-22T08:50:01.005Z,22.80
2023-01-22T08:53:02.694Z,22.20
2023-01-22T08:56:04.612Z,24.60
2023-01-22T08:59:06.239Z,26.50
2023-01-22T09:05:12.607Z,21.80
2023-01-22T09:11:15.971Z,25.40
2023-01-22T09:14:17.815Z,30.50
2023-01-22T09:17:19.404Z,22.30
2023-01-22T09:20:21.275Z,29.30
2023-01-22T09:23:22.951Z,26.40
2023-01-22T09:26:24.660Z,26.80
2023-01-22T09:32:27.991Z,26.60
2023-01-22T09:41:46.729Z,24.40
2023-01-22T09:44:52.096Z,24.70
2023-01-22T09:47:56.476Z,25.20
2023-01-22T09:50:58.041Z,25.60
2023-01-22T09:54:01.342Z,25.90
2023-01-22T09:57:05.273Z,26.20
2023-01-22T10:00:33.814Z,24.40
2023-01-22T10:03:44.384Z,22.70
2023-01-22T10:06:46.441Z,23.50
2023-01-22T10:09:53.748Z,22.20
2023-01-22T10:13:06.650Z,25.40
2023-01-22T10:16:09.953Z,25.50
2023-01-22T10:19:25.143Z,22.60
2023-01-22T10:22:27.110Z,23.40
2023-01-22T10:25:28.959Z,25.00
2023-01-22T10:28:30.845Z,23.50
2023-01-22T10:31:38.299Z,22.90
2023-01-22T10:34:40.207Z,23.40
2023-01-22T10:37:50.736Z,24.60
2023-01-22T10:40:55.345Z,25.10
2023-01-22T10:44:13.367Z,25.90
2023-01-22T10:47:23.294Z,26.60
2023-01-22T10:50:24.919Z,25.00
2023-01-22T10:53:33.618Z,28.10
2023-01-22T10:56:37.203Z,24.70
2023-01-22T10:59:38.845Z,30.10
2023-01-22T11:02:46.698Z,27.10
2023-01-22T11:05:51.994Z,31.60
2023-01-22T11:09:11.368Z,29.80
2023-01-22T11:12:28.714Z,27.40
2023-01-22T11:15:52.201Z,28.00
2023-01-22T11:19:05.290Z,29.30
2023-01-22T11:22:16.970Z,31.40
2023-01-22T11:25:18.781Z,28.70
2023-01-22T11:31:48.829Z,35.90
2023-01-22T11:35:05.828Z,38.80
2023-01-22T11:38:10.480Z,39.00
2023-01-22T11:41:36.018Z,33.20
2023-01-22T11:44:52.750Z,35.80
2023-01-22T11:48:14.510Z,36.20
2023-01-22T11:51:36.797Z,32.80
2023-01-22T11:55:12.863Z,37.30
2023-01-22T11:58:57.332Z,34.10
2023-01-22T12:02:30.322Z,34.80
2023-01-22T12:05:48.259Z,44.60
2023-01-22T12:08:52.966Z,49.60
2023-01-22T12:12:12.011Z,45.20
2023-01-22T12:15:18.048Z,42.30
2023-01-22T12:18:46.823Z,39.30
2023-01-22T12:21:54.516Z,33.10
2023-01-22T12:25:02.897Z,38.30
2023-01-22T12:28:34.554Z,36.90
2023-01-22T12:31:40.509Z,35.90
2023-01-22T12:35:00.626Z,37.90
2023-01-22T12:38:12.616Z,38.00
2023-01-22T12:41:36.415Z,37.40
2023-01-22T12:45:07.207Z,36.70
2023-01-22T12:48:23.053Z,38.50
2023-01-22T12:51:38.273Z,39.70
2023-01-22T12:54:39.987Z,39.80
2023-01-22T12:57:41.831Z,42.40
2023-01-22T13:04:00.008Z,42.20
2023-01-22T13:07:15.820Z,33.30
2023-01-22T13:10:21.137Z,33.30
2023-01-22T13:13:33.951Z,37.30
2023-01-22T13:16:36.798Z,40.80
2023-01-22T13:19:44.139Z,36.50
2023-01-22T13:22:45.848Z,39.70
2023-01-22T13:29:00.324Z,45.30
2023-01-22T13:32:19.544Z,43.70
2023-01-22T13:35:21.379Z,48.30
2023-01-22T13:38:27.254Z,45.90
2023-01-22T13:41:37.445Z,43.20
2023-01-22T13:44:41.805Z,42.80
2023-01-22T13:47:43.519Z,42.60
2023-01-22T13:53:54.931Z,48.20
2023-01-22T13:56:56.630Z,55.70
2023-01-22T13:59:59.929Z,63.20
2023-01-22T14:03:02.136Z,62.60
2023-01-22T14:06:06.620Z,52.50
2023-01-22T14:09:08.387Z,59.00
2023-01-22T14:15:20.553Z,71.10
2023-01-22T14:18:22.124Z,81.40
2023-01-22T14:21:23.684Z,75.30
2023-01-22T14:24:25.267Z,73.00
2023-01-22T14:27:45.047Z,55.70
2023-01-22T14:30:46.727Z,72.30
2023-01-22T14:33:48.626Z,65.80
2023-01-22T14:36:50.303Z,68.30
2023-01-22T14:42:53.632Z,42.80
2023-01-22T14:48:56.847Z,45.30
2023-01-22T14:51:58.388Z,39.50
2023-01-22T14:54:59.938Z,35.30
2023-01-22T14:58:01.681Z,33.50
2023-01-22T15:04:15.240Z,30.70
2023-01-22T15:07:16.862Z,29.70
2023-01-22T15:10:19.533Z,29.50
2023-01-22T15:13:21.339Z,33.20
2023-01-22T15:16:23.025Z,48.80
2023-01-22T15:22:26.490Z,69.00
2023-01-22T15:25:28.160Z,44.70
2023-01-22T15:28:29.960Z,80.80
2023-01-22T15:34:33.963Z,49.90
2023-01-22T15:37:35.536Z,44.40
2023-01-22T15:40:37.319Z,45.30
2023-01-22T15:46:41.504Z,40.00
2023-01-22T15:49:43.106Z,56.90
2023-01-22T15:52:44.771Z,44.20
2023-01-22T15:55:49.830Z,40.20
2023-01-22T15:58:52.332Z,38.40
2023-01-22T16:01:54.090Z,37.00
2023-01-22T16:07:57.293Z,41.10
2023-01-22T16:14:00.817Z,43.90
2023-01-22T16:20:04.294Z,48.00
2023-01-22T16:23:06.084Z,49.00
2023-01-22T16:35:13.423Z,40.50
2023-01-22T16:38:15.121Z,40.90
2023-01-22T16:41:25.341Z,40.70
2023-01-22T16:44:27.415Z,40.50
2023-01-22T16:47:29.059Z,41.60
2023-01-22T16:50:30.783Z,44.20
2023-01-22T16:56:34.703Z,48.10
2023-01-22T16:59:37.789Z,66.60
2023-01-22T17:02:39.377Z,56.50
2023-01-22T17:08:42.712Z,65.60
2023-01-22T17:11:45.095Z,70.10
2023-01-22T17:14:46.658Z,51.80
2023-01-22T17:17:48.291Z,48.50
2023-01-22T17:21:01.615Z,46.70
2023-01-22T17:24:03.994Z,48.30
2023-01-22T17:27:05.627Z,41.50
2023-01-22T17:30:08.272Z,44.40
2023-01-22T17:33:09.982Z,46.70
2023-01-22T17:39:15.669Z,47.40
2023-01-22T17:42:18.174Z,50.00
2023-01-22T17:45:20.023Z,48.90
2023-01-22T17:48:21.851Z,49.10
2023-01-22T17:51:25.711Z,49.10
2023-01-22T17:54:27.269Z,52.10
2023-01-22T17:57:28.897Z,51.80
2023-01-22T18:00:30.571Z,52.90
2023-01-22T18:03:32.238Z,51.20
2023-01-22T18:06:34.969Z,50.90
2023-01-22T18:09:36.674Z,48.80
2023-01-22T18:15:45.186Z,48.80
2023-01-22T18:18:46.960Z,48.30
2023-01-22T18:24:50.396Z,46.70
2023-01-22T18:27:52.053Z,56.30
2023-01-22T18:30:54.189Z,56.40
2023-01-22T18:33:57.903Z,60.30
2023-01-22T18:36:59.530Z,62.20
2023-01-22T18:40:01.225Z,53.40
2023-01-22T18:43:02.851Z,51.60
2023-01-22T18:46:06.649Z,48.50
2023-01-22T18:49:17.080Z,52.20
2023-01-22T18:52:19.563Z,54.10
2023-01-22T18:55:21.874Z,56.60
2023-01-22T18:58:23.848Z,57.50
2023-01-22T19:01:31.275Z,52.70
2023-01-22T19:04:32.967Z,50.70
2023-01-22T19:07:34.605Z,51.40
2023-01-22T19:10:36.254Z,53.80
2023-01-22T19:13:39.045Z,51.30
2023-01-22T19:16:40.851Z,54.70
2023-01-22T19:19:42.475Z,60.60
2023-01-22T19:22:44.069Z,60.10
2023-01-22T19:25:45.727Z,60.50
2023-01-22T19:28:47.381Z,62.30
2023-01-22T19:31:50.317Z,68.90
2023-01-22T19:34:51.946Z,59.70
2023-01-22T19:37:53.533Z,59.80
2023-01-22T19:40:55.126Z,51.50
2023-01-22T19:43:59.568Z,48.30
2023-01-22T19:47:01.164Z,48.00
2023-01-22T19:50:02.840Z,46.70
2023-01-22T19:53:04.580Z,43.50
2023-01-22T19:56:18.227Z,45.60
2023-01-22T19:59:21.521Z,43.00
2023-01-22T20:02:23.139Z,46.70
2023-01-22T20:08:26.621Z,42.20
2023-01-22T20:11:28.176Z,43.20
2023-01-22T20:14:32.243Z,42.50
2023-01-22T20:17:34.622Z,41.60
2023-01-22T20:20:36.862Z,40.50
2023-01-22T20:23:38.624Z,40.70
2023-01-22T20:29:42.031Z,40.70
2023-01-22T20:35:45.312Z,40.90
2023-01-22T20:38:47.914Z,41.00
2023-01-22T20:41:49.457Z,45.50
2023-01-22T20:44:51.619Z,46.50
2023-01-22T20:47:53.257Z,44.20
2023-01-22T20:50:55.159Z,44.20
2023-01-22T20:53:57.206Z,44.80
2023-01-22T20:56:58.870Z,44.40
2023-01-22T21:00:00.541Z,40.20
2023-01-22T21:03:02.139Z,43.50
2023-01-22T21:06:05.906Z,43.30
2023-01-22T21:09:09.326Z,48.00
2023-01-22T21:12:10.897Z,48.20
2023-01-22T21:15:12.576Z,52.00
2023-01-22T21:18:14.347Z,54.60
2023-01-22T21:21:18.648Z,58.40
2023-01-22T21:24:20.311Z,56.10
2023-01-22T21:27:21.897Z,54.70
2023-01-22T21:30:23.581Z,56.20
2023-01-22T21:36:26.880Z,51.60
2023-01-22T21:39:30.009Z,52.50
2023-01-22T21:42:31.678Z,57.50
2023-01-22T21:45:33.400Z,56.60
2023-01-22T21:48:34.978Z,58.50
2023-01-22T21:51:36.503Z,61.80
2023-01-22T21:54:40.158Z,61.30
2023-01-22T21:57:41.789Z,61.20
2023-01-22T22:00:43.379Z,55.70
2023-01-22T22:06:47.300Z,51.70
2023-01-22T22:09:49.046Z,56.00
2023-01-22T22:15:52.345Z,55.80
2023-01-22T22:18:56.975Z,61.10
2023-01-22T22:21:58.535Z,54.80
2023-01-22T22:25:00.047Z,56.10
2023-01-22T22:28:01.727Z,53.50
2023-01-22T22:31:09.060Z,59.10
2023-01-22T22:34:10.746Z,56.00
2023-01-22T22:37:12.725Z,55.50
2023-01-22T22:40:14.420Z,57.00
2023-01-22T22:43:16.219Z,55.90
2023-01-22T22:49:21.021Z,54.00
2023-01-22T22:52:22.787Z,55.70
2023-01-22T22:55:24.407Z,61.90
2023-01-22T22:58:26.398Z,64.30
2023-01-22T23:04:30.163Z,58.90
2023-01-22T23:07:31.917Z,65.80
2023-01-22T23:10:33.648Z,64.20
2023-01-22T23:13:36.313Z,58.00
2023-01-22T23:16:42.543Z,58.90
2023-01-22T23:19:44.262Z,57.30
2023-01-22T23:25:47.658Z,54.50
2023-01-22T23:28:49.903Z,57.00
2023-01-22T23:31:51.940Z,60.30
2023-01-22T23:34:53.884Z,59.20
2023-01-22T23:41:01.538Z,59.40
2023-01-22T23:44:04.005Z,61.70
2023-01-22T23:47:05.699Z,64.70
2023-01-22T23:53:09.285Z,65.00
2023-01-22T23:59:13.373Z,62.20
